x

West Moresby (46208) Wave Buoy

2:00pm - Sat 28th Feb 2015 All times are PST. -8 hours from GMT.

  • Sig Wave height 5.2ft
  • Peak Period 6s
  • Wind
    22mph, 27mph gusts
  • Sea Temp 49°f
  • Air Temp 47°f
  • Sea Pressure 1027.7mb
  • West Moresby
  • West Moresby

More Historic Weather Station data

Upgrade to MSW Pro to gain access to the past 30 days of data for over 8000 Wavebouys and Weather Stations around the globe.

Join Pro

Comparision Forecast

View Surf forecast
   
Sat 02/28 2:00pm 5ft 6s 22 27 mph 1027.7mb 49f 47f
1:00pm 5.5ft 5s 22 27 mph 1027.8mb 49f 47f
12:00pm 6ft 6s 22 25 mph 1027.8mb 49f 48f
11:00am 6ft 5s 20 25 mph 1027.6mb 49f 48f
10:00am 6ft 6s 22 27 mph 1027.4mb 49f 48f
9:00am 5ft 6s 22 25 mph 1027mb 49f 48f
8:00am 5ft 6s 22 27 mph 1026.8mb 49f 48f
7:00am 5.5ft 6s 22 27 mph 1026.6mb 49f 48f
6:00am 5.5ft 6s 22 25 mph 1026.5mb 49f 48f
5:00am 5ft 6s 22 25 mph 1026.4mb 49f 48f
4:00am 5ft 6s 20 25 mph 1026.3mb 49f 48f
3:00am 5ft 7s 18 22 mph 1026.4mb 49f 48f
2:00am 5ft 6s 18 22 mph 1026.3mb 49f 48f
1:00am 5ft 7s 18 22 mph 1026.3mb 49f 49f
12:00am 5.5ft 7s 13 16 mph 1026.2mb 49f 49f
Fri 02/27 11:00pm 6ft 7s 13 16 mph 1025.8mb 49f 49f
10:00pm 6.5ft 6s 13 18 mph 1025.7mb 49f 49f
9:00pm 6.5ft 6s 16 20 mph 1025.5mb 49f 49f
8:00pm 6.5ft 6s 22 25 mph 1024.8mb 49f 49f
7:00pm 7ft 6s 22 27 mph 1024.8mb 49f 49f
6:00pm 6.5ft 7s 22 27 mph 1024.5mb 49f 49f
5:00pm 6.5ft 7s 22 27 mph 1024.6mb 49f 49f
4:00pm 6ft 8s 22 27 mph 1024mb 49f 49f
3:00pm 6ft 8s 22 29 mph 1023.7mb 49f 49f
2:00pm 6ft 8s 22 25 mph 1023.3mb 49f 49f
1:00pm 7ft 8s 22 25 mph 1023.5mb 49f 49f
12:00pm 7ft 8s 22 27 mph 1023.7mb 49f 48f
11:00am 7ft 8s 29 36 mph 1022.5mb 49f 48f
10:00am 7ft 11s 27 34 mph 1022.1mb 49f 48f
9:00am 7ft 9s 27 31 mph 1021.5mb 49f 47f
8:00am 6.5ft 6s 27 31 mph 1021.2mb 49f 47f
7:00am 7ft 7s 22 27 mph 1020.7mb 49f 47f
6:00am 7ft 10s 27 31 mph 1019.6mb 49f 47f
5:00am 7ft 8s 22 27 mph 1020mb 49f 48f
4:00am 7ft 10s 20 27 mph 1019.6mb 50f 48f
3:00am 7ft 10s 20 27 mph 1019.4mb 50f 48f
2:00am 7ft 10s 20 25 mph 1019mb 50f 48f
1:00am 6.5ft 8s 18 20 mph 1018.7mb 50f 48f
12:00am 7ft 11s 18 25 mph 1018.7mb 50f 48f
Thu 02/26 11:00pm 7ft 10s 20 25 mph 1018.3mb 50f 48f
10:00pm 8ft 9s 22 27 mph 1018mb 50f 48f
9:00pm 7.5ft 11s 20 25 mph 1017.8mb 50f 48f
8:00pm 7.5ft 10s 18 22 mph 1017.5mb 50f 49f
7:00pm 7.5ft 10s 20 25 mph 1017mb 50f 49f
6:00pm 7ft 10s 22 27 mph 1016.3mb 50f 49f
5:00pm 6.5ft 10s 22 27 mph 1016.3mb 50f 50f
4:00pm 6ft 11s 18 25 mph 1016mb 50f 50f
3:00pm 6ft 10s 18 20 mph 1015.7mb 50f 50f
2:00pm 5.5ft 11s 16 18 mph 1015.7mb 50f 48f
1:00pm 6ft 11s 16 20 mph 1015.7mb 50f 48f
12:00pm 7ft 11s 18 22 mph 1016mb 50f 48f
11:00am 7ft 12s 18 20 mph 1015.9mb 50f 48f
10:00am 6ft 11s 16 18 mph 1015.8mb 50f 47f
9:00am 6ft 12s 11 16 mph 1015.6mb 50f 47f
8:00am 6ft 11s 11 13 mph 1015.4mb 50f 47f
7:00am 6.5ft 10s 11 13 mph 1015.4mb 50f 47f
6:00am 6.5ft 12s 11 13 mph 1015.7mb 50f 47f
5:00am 6.5ft 10s 11 16 mph 1016mb 50f 47f
4:00am 7ft 10s 11 13 mph 1016.5mb 50f 47f
3:00am 7ft 10s 16 18 mph 1017.1mb 50f 48f
2:00am 6.5ft 11s 11 13 mph 1017.6mb 50f 48f
1:00am 6.5ft 10s 13 16 mph 1018.3mb 50f 49f
12:00am 6.5ft 10s 13 16 mph 1018.7mb 50f 48f
Wed 02/25 11:00pm 6.5ft 11s 13 18 mph 1019.1mb 49f 48f
10:00pm 7ft 11s 13 16 mph 1020.2mb 49f 48f
9:00pm 6ft 12s 11 13 mph 1020.5mb 49f 47f
8:00pm 6ft 12s 9 13 mph 1020.9mb 50f 48f
7:00pm 6ft 12s 7 9 mph 1021.4mb 50f 48f
6:00pm 6ft 11s 9 13 mph 1021.7mb 50f 48f
5:00pm 5.5ft 11s 7 9 mph 1021.8mb 50f 48f
4:00pm 5ft 12s 7 9 mph 1022.3mb 50f 49f
3:00pm 5ft 11s 7 9 mph 1022.7mb 50f 48f
2:00pm 5ft 12s 9 11 mph 1022.9mb 50f 48f
1:00pm 5ft 11s 13 16 mph 1023.1mb 50f 48f
12:00pm 4.5ft 11s 16 18 mph 1023.4mb 50f 47f
11:00am 4.5ft 4s 18 22 mph 1023.7mb 49f 47f
10:00am 4.5ft 12s 18 22 mph 1023.7mb 49f 47f
9:00am 4ft 10s 16 20 mph 1023.7mb 49f 46f
8:00am 4ft 8s 16 18 mph 1024.2mb 49f 46f
7:00am 4ft 7s 16
mph
1024.4mb 49f 46f
6:00am 4ft 8s 13 16 mph 1024.8mb 49f 47f
5:00am 4ft 11s 16 18 mph 1025.2mb 49f 47f
4:00am 4ft 10s 16 18 mph 1025.9mb 49f 47f
3:00am 4.5ft 8s 13 16 mph 1026.6mb 49f 46f
2:00am 4.5ft 10s 11 13 mph 1027.8mb 49f 47f
1:00am 5ft 10s 9 11 mph 1028.4mb 49f 47f
12:00am 5ft 10s 4 7 mph 1028.2mb 49f 47f